sensor_id;sensor_type;location;lat;lon;timestamp;temperature;humidity
11304;DHT22;5707;49.588;12.148;2023-07-31T00:02:23;11.00;99.90
11304;DHT22;5707;49.588;12.148;2023-07-31T00:04:49;11.20;99.90
11304;DHT22;5707;49.588;12.148;2023-07-31T00:07:15;11.40;99.90
11304;DHT22;5707;49.588;12.148;2023-07-31T00:09:40;11.40;99.90
11304;DHT22;5707;49.588;12.148;2023-07-31T00:12:06;11.30;99.90
11304;DHT22;5707;49.588;12.148;2023-07-31T00:14:32;11.30;99.90
11304;DHT22;5707;49.588;12.148;2023-07-31T00:16:57;11.40;99.90
11304;DHT22;5707;49.588;12.148;2023-07-31T00:19:23;11.30;99.90
11304;DHT22;5707;49.588;12.148;2023-07-31T00:21:49;11.20;99.90
11304;DHT22;5707;49.588;12.148;2023-07-31T00:24:14;11.20;99.90
11304;DHT22;5707;49.588;12.148;2023-07-31T00:26:40;11.20;99.90
11304;DHT22;5707;49.588;12.148;2023-07-31T00:29:05;11.20;99.90
11304;DHT22;5707;49.588;12.148;2023-07-31T00:31:31;11.30;99.90
11304;DHT22;5707;49.588;12.148;2023-07-31T00:33:56;11.30;99.90
11304;DHT22;5707;49.588;12.148;2023-07-31T00:36:22;11.30;99.90
11304;DHT22;5707;49.588;12.148;2023-07-31T00:38:48;11.30;99.90
11304;DHT22;5707;49.588;12.148;2023-07-31T00:41:14;11.30;99.90
11304;DHT22;5707;49.588;12.148;2023-07-31T00:43:40;11.20;99.90
11304;DHT22;5707;49.588;12.148;2023-07-31T00:46:06;11.30;99.90
11304;DHT22;5707;49.588;12.148;2023-07-31T00:48:32;11.40;99.90
11304;DHT22;5707;49.588;12.148;2023-07-31T00:50:58;11.50;99.90
11304;DHT22;5707;49.588;12.148;2023-07-31T00:53:24;11.60;99.90
11304;DHT22;5707;49.588;12.148;2023-07-31T00:55:51;11.60;99.90
11304;DHT22;5707;49.588;12.148;2023-07-31T00:58:17;11.60;99.90
11304;DHT22;5707;49.588;12.148;2023-07-31T01:00:42;11.60;99.90
11304;DHT22;5707;49.588;12.148;2023-07-31T01:03:08;11.70;99.90
11304;DHT22;5707;49.588;12.148;2023-07-31T01:05:47;11.60;99.90
11304;DHT22;5707;49.588;12.148;2023-07-31T01:08:33;11.60;99.90
11304;DHT22;5707;49.588;12.148;2023-07-31T01:11:29;11.60;99.90
11304;DHT22;5707;49.588;12.148;2023-07-31T01:13:56;11.60;99.90
11304;DHT22;5707;49.588;12.148;2023-07-31T01:16:22;11.50;99.90
11304;DHT22;5707;49.588;12.148;2023-07-31T01:18:47;11.50;99.90
11304;DHT22;5707;49.588;12.148;2023-07-31T01:24:00;11.40;99.90
11304;DHT22;5707;49.588;12.148;2023-07-31T01:26:38;11.30;99.90
11304;DHT22;5707;49.588;12.148;2023-07-31T01:29:14;11.30;99.90
11304;DHT22;5707;49.588;12.148;2023-07-31T01:31:43;11.40;99.90
11304;DHT22;5707;49.588;12.148;2023-07-31T01:34:11;11.50;99.90
11304;DHT22;5707;49.588;12.148;2023-07-31T01:36:38;11.60;99.90
11304;DHT22;5707;49.588;12.148;2023-07-31T01:39:03;11.70;99.90
11304;DHT22;5707;49.588;12.148;2023-07-31T01:41:29;11.70;99.90
11304;DHT22;5707;49.588;12.148;2023-07-31T01:43:55;11.80;99.90
11304;DHT22;5707;49.588;12.148;2023-07-31T01:46:20;11.90;99.90
11304;DHT22;5707;49.588;12.148;2023-07-31T01:48:46;11.90;99.90
11304;DHT22;5707;49.588;12.148;2023-07-31T01:51:11;12.10;99.90
11304;DHT22;5707;49.588;12.148;2023-07-31T01:53:37;12.20;99.90
11304;DHT22;5707;49.588;12.148;2023-07-31T01:56:03;12.30;99.90
11304;DHT22;5707;49.588;12.148;2023-07-31T01:58:28;12.30;99.90
11304;DHT22;5707;49.588;12.148;2023-07-31T02:00:54;12.40;99.90
11304;DHT22;5707;49.588;12.148;2023-07-31T02:03:20;12.40;99.90
11304;DHT22;5707;49.588;12.148;2023-07-31T02:05:47;12.50;99.90
11304;DHT22;5707;49.588;12.148;2023-07-31T02:08:13;12.60;99.90
11304;DHT22;5707;49.588;12.148;2023-07-31T02:10:38;12.70;99.90
11304;DHT22;5707;49.588;12.148;2023-07-31T02:13:04;12.80;99.90
11304;DHT22;5707;49.588;12.148;2023-07-31T02:15:30;12.90;99.90
11304;DHT22;5707;49.588;12.148;2023-07-31T02:17:56;13.00;99.90
11304;DHT22;5707;49.588;12.148;2023-07-31T02:20:21;13.00;99.90
11304;DHT22;5707;49.588;12.148;2023-07-31T02:22:47;13.10;99.90
11304;DHT22;5707;49.588;12.148;2023-07-31T02:25:13;13.10;99.90
11304;DHT22;5707;49.588;12.148;2023-07-31T02:27:38;13.10;99.90
11304;DHT22;5707;49.588;12.148;2023-07-31T02:30:04;13.20;99.90
11304;DHT22;5707;49.588;12.148;2023-07-31T02:32:30;13.30;99.90
11304;DHT22;5707;49.588;12.148;2023-07-31T02:34:55;13.40;99.90
11304;DHT22;5707;49.588;12.148;2023-07-31T02:37:21;13.40;99.90
11304;DHT22;5707;49.588;12.148;2023-07-31T02:39:47;13.50;99.90
11304;DHT22;5707;49.588;12.148;2023-07-31T02:42:13;13.40;99.90
11304;DHT22;5707;49.588;12.148;2023-07-31T02:44:39;13.50;99.90
11304;DHT22;5707;49.588;12.148;2023-07-31T02:47:04;13.50;99.90
11304;DHT22;5707;49.588;12.148;2023-07-31T02:49:30;13.50;99.90
11304;DHT22;5707;49.588;12.148;2023-07-31T02:51:56;13.50;99.90
11304;DHT22;5707;49.588;12.148;2023-07-31T02:54:21;13.50;99.90
11304;DHT22;5707;49.588;12.148;2023-07-31T02:56:47;13.50;99.90
11304;DHT22;5707;49.588;12.148;2023-07-31T02:59:13;13.60;99.90
11304;DHT22;5707;49.588;12.148;2023-07-31T03:01:38;13.60;99.90
11304;DHT22;5707;49.588;12.148;2023-07-31T03:04:04;13.60;99.90
11304;DHT22;5707;49.588;12.148;2023-07-31T03:06:30;13.70;99.90
11304;DHT22;5707;49.588;12.148;2023-07-31T03:08:55;13.60;99.90
11304;DHT22;5707;49.588;12.148;2023-07-31T03:11:21;13.60;99.90
11304;DHT22;5707;49.588;12.148;2023-07-31T03:13:46;13.70;99.90
11304;DHT22;5707;49.588;12.148;2023-07-31T03:16:12;13.70;99.90
11304;DHT22;5707;49.588;12.148;2023-07-31T03:18:37;13.60;99.90
11304;DHT22;5707;49.588;12.148;2023-07-31T03:21:04;13.70;99.90
11304;DHT22;5707;49.588;12.148;2023-07-31T03:23:29;13.70;99.90
11304;DHT22;5707;49.588;12.148;2023-07-31T03:26:00;13.70;99.90
11304;DHT22;5707;49.588;12.148;2023-07-31T03:28:26;13.80;99.90
11304;DHT22;5707;49.588;12.148;2023-07-31T03:30:52;13.80;99.90
11304;DHT22;5707;49.588;12.148;2023-07-31T03:33:18;13.90;99.90
11304;DHT22;5707;49.588;12.148;2023-07-31T03:35:44;13.90;99.90
11304;DHT22;5707;49.588;12.148;2023-07-31T03:38:10;13.90;99.90
11304;DHT22;5707;49.588;12.148;2023-07-31T03:40:35;13.90;99.90
11304;DHT22;5707;49.588;12.148;2023-07-31T03:43:01;13.90;99.90
11304;DHT22;5707;49.588;12.148;2023-07-31T03:45:27;13.90;99.90
11304;DHT22;5707;49.588;12.148;2023-07-31T03:47:52;14.00;99.90
11304;DHT22;5707;49.588;12.148;2023-07-31T03:50:20;13.90;99.90
11304;DHT22;5707;49.588;12.148;2023-07-31T03:52:45;13.90;99.90
11304;DHT22;5707;49.588;12.148;2023-07-31T03:55:11;14.00;99.90
11304;DHT22;5707;49.588;12.148;2023-07-31T03:57:36;14.00;99.90
11304;DHT22;5707;49.588;12.148;2023-07-31T04:00:02;14.00;99.90
11304;DHT22;5707;49.588;12.148;2023-07-31T04:02:28;14.00;99.90
11304;DHT22;5707;49.588;12.148;2023-07-31T04:04:53;14.10;99.90
11304;DHT22;5707;49.588;12.148;2023-07-31T04:07:19;14.10;99.90
11304;DHT22;5707;49.588;12.148;2023-07-31T04:09:44;14.20;99.90
11304;DHT22;5707;49.588;12.148;2023-07-31T04:12:10;14.30;99.90
11304;DHT22;5707;49.588;12.148;2023-07-31T04:14:35;14.30;99.90
11304;DHT22;5707;49.588;12.148;2023-07-31T04:17:01;14.40;99.90
11304;DHT22;5707;49.588;12.148;2023-07-31T04:19:26;14.40;99.90
11304;DHT22;5707;49.588;12.148;2023-07-31T04:21:52;14.40;99.90
11304;DHT22;5707;49.588;12.148;2023-07-31T04:24:18;14.50;99.90
11304;DHT22;5707;49.588;12.148;2023-07-31T04:26:50;14.50;99.90
11304;DHT22;5707;49.588;12.148;2023-07-31T04:29:15;14.50;99.90
11304;DHT22;5707;49.588;12.148;2023-07-31T04:31:41;14.50;99.90
11304;DHT22;5707;49.588;12.148;2023-07-31T04:34:06;14.50;99.90
11304;DHT22;5707;49.588;12.148;2023-07-31T04:36:34;14.60;99.90
11304;DHT22;5707;49.588;12.148;2023-07-31T04:39:00;14.60;99.90
11304;DHT22;5707;49.588;12.148;2023-07-31T04:41:26;14.70;99.90
11304;DHT22;5707;49.588;12.148;2023-07-31T04:43:51;14.80;99.90
11304;DHT22;5707;49.588;12.148;2023-07-31T04:46:17;14.80;99.90
11304;DHT22;5707;49.588;12.148;2023-07-31T04:48:43;14.90;99.90
11304;DHT22;5707;49.588;12.148;2023-07-31T04:51:08;15.00;99.90
11304;DHT22;5707;49.588;12.148;2023-07-31T04:53:37;15.10;99.90
11304;DHT22;5707;49.588;12.148;2023-07-31T04:56:03;15.20;99.90
11304;DHT22;5707;49.588;12.148;2023-07-31T04:58:28;15.60;99.90
11304;DHT22;5707;49.588;12.148;2023-07-31T05:00:54;16.70;99.90
11304;DHT22;5707;49.588;12.148;2023-07-31T05:03:20;17.80;99.90
11304;DHT22;5707;49.588;12.148;2023-07-31T05:05:45;18.60;99.90
11304;DHT22;5707;49.588;12.148;2023-07-31T05:08:11;19.20;99.90
11304;DHT22;5707;49.588;12.148;2023-07-31T05:10:37;19.60;99.70
11304;DHT22;5707;49.588;12.148;2023-07-31T05:13:02;19.20;99.90
11304;DHT22;5707;49.588;12.148;2023-07-31T05:15:28;18.60;99.90
11304;DHT22;5707;49.588;12.148;2023-07-31T05:17:54;18.00;99.90
11304;DHT22;5707;49.588;12.148;2023-07-31T05:20:20;17.60;99.90
11304;DHT22;5707;49.588;12.148;2023-07-31T05:22:46;18.00;99.90
11304;DHT22;5707;49.588;12.148;2023-07-31T05:25:11;18.00;99.90
11304;DHT22;5707;49.588;12.148;2023-07-31T05:27:37;17.80;99.90
11304;DHT22;5707;49.588;12.148;2023-07-31T05:30:03;17.60;99.90
11304;DHT22;5707;49.588;12.148;2023-07-31T05:32:28;17.40;99.90
11304;DHT22;5707;49.588;12.148;2023-07-31T05:34:54;17.30;99.90
11304;DHT22;5707;49.588;12.148;2023-07-31T05:37:20;17.30;99.90
11304;DHT22;5707;49.588;12.148;2023-07-31T05:39:45;17.40;99.90
11304;DHT22;5707;49.588;12.148;2023-07-31T05:42:11;17.60;99.90
11304;DHT22;5707;49.588;12.148;2023-07-31T05:44:36;18.00;99.90
11304;DHT22;5707;49.588;12.148;2023-07-31T05:47:02;18.40;99.90
11304;DHT22;5707;49.588;12.148;2023-07-31T05:49:27;18.80;99.90
11304;DHT22;5707;49.588;12.148;2023-07-31T05:51:53;19.00;99.90
11304;DHT22;5707;49.588;12.148;2023-07-31T05:54:19;19.00;99.90
11304;DHT22;5707;49.588;12.148;2023-07-31T05:56:44;19.00;99.90
11304;DHT22;5707;49.588;12.148;2023-07-31T05:59:12;19.00;99.90
11304;DHT22;5707;49.588;12.148;2023-07-31T06:01:38;19.30;99.90
11304;DHT22;5707;49.588;12.148;2023-07-31T06:04:04;19.80;99.90
11304;DHT22;5707;49.588;12.148;2023-07-31T06:06:30;19.90;99.50
11304;DHT22;5707;49.588;12.148;2023-07-31T06:08:56;19.80;98.60
11304;DHT22;5707;49.588;12.148;2023-07-31T06:11:21;19.70;99.90
11304;DHT22;5707;49.588;12.148;2023-07-31T06:13:47;19.60;98.80
11304;DHT22;5707;49.588;12.148;2023-07-31T06:16:14;19.50;99.50
11304;DHT22;5707;49.588;12.148;2023-07-31T06:18:40;19.50;98.90
11304;DHT22;5707;49.588;12.148;2023-07-31T06:21:06;19.60;99.90
11304;DHT22;5707;49.588;12.148;2023-07-31T06:23:32;20.00;99.10
11304;DHT22;5707;49.588;12.148;2023-07-31T06:25:57;20.50;97.80
11304;DHT22;5707;49.588;12.148;2023-07-31T06:28:30;21.10;96.60
11304;DHT22;5707;49.588;12.148;2023-07-31T06:30:59;21.20;94.60
11304;DHT22;5707;49.588;12.148;2023-07-31T06:33:26;21.10;96.10
11304;DHT22;5707;49.588;12.148;2023-07-31T06:35:51;21.10;93.30
11304;DHT22;5707;49.588;12.148;2023-07-31T06:38:21;21.10;91.70
11304;DHT22;5707;49.588;12.148;2023-07-31T06:40:47;21.00;93.20
11304;DHT22;5707;49.588;12.148;2023-07-31T06:43:12;21.10;93.80
11304;DHT22;5707;49.588;12.148;2023-07-31T06:45:38;21.20;92.10
11304;DHT22;5707;49.588;12.148;2023-07-31T06:48:03;21.10;92.20
11304;DHT22;5707;49.588;12.148;2023-07-31T06:50:32;21.10;92.50
11304;DHT22;5707;49.588;12.148;2023-07-31T06:52:58;21.10;92.90
11304;DHT22;5707;49.588;12.148;2023-07-31T06:55:25;21.30;92.50
11304;DHT22;5707;49.588;12.148;2023-07-31T06:57:53;21.40;92.20
11304;DHT22;5707;49.588;12.148;2023-07-31T07:00:20;21.50;90.60
11304;DHT22;5707;49.588;12.148;2023-07-31T07:02:46;21.60;91.50
11304;DHT22;5707;49.588;12.148;2023-07-31T07:05:16;21.50;89.60
11304;DHT22;5707;49.588;12.148;2023-07-31T07:07:42;21.40;89.60
11304;DHT22;5707;49.588;12.148;2023-07-31T07:10:08;21.70;91.00
11304;DHT22;5707;49.588;12.148;2023-07-31T07:12:34;21.90;84.10
11304;DHT22;5707;49.588;12.148;2023-07-31T07:15:01;21.80;84.40
11304;DHT22;5707;49.588;12.148;2023-07-31T07:17:28;21.80;87.90
11304;DHT22;5707;49.588;12.148;2023-07-31T07:19:56;22.20;89.40
11304;DHT22;5707;49.588;12.148;2023-07-31T07:22:21;22.70;82.10
11304;DHT22;5707;49.588;12.148;2023-07-31T07:24:47;22.60;82.20
11304;DHT22;5707;49.588;12.148;2023-07-31T07:27:12;22.80;81.10
11304;DHT22;5707;49.588;12.148;2023-07-31T07:29:38;23.00;79.40
11304;DHT22;5707;49.588;12.148;2023-07-31T07:32:04;22.90;79.30
11304;DHT22;5707;49.588;12.148;2023-07-31T07:34:30;23.00;79.20
11304;DHT22;5707;49.588;12.148;2023-07-31T07:36:56;23.00;79.00
11304;DHT22;5707;49.588;12.148;2023-07-31T07:39:21;22.90;77.00
11304;DHT22;5707;49.588;12.148;2023-07-31T07:41:47;22.90;79.70
11304;DHT22;5707;49.588;12.148;2023-07-31T07:44:13;23.20;83.40
11304;DHT22;5707;49.588;12.148;2023-07-31T07:46:39;23.20;73.00
11304;DHT22;5707;49.588;12.148;2023-07-31T07:49:05;23.10;75.80
11304;DHT22;5707;49.588;12.148;2023-07-31T07:51:31;23.00;78.50
11304;DHT22;5707;49.588;12.148;2023-07-31T07:53:57;22.90;79.80
11304;DHT22;5707;49.588;12.148;2023-07-31T07:56:23;22.60;78.80
11304;DHT22;5707;49.588;12.148;2023-07-31T07:58:50;22.70;73.10
11304;DHT22;5707;49.588;12.148;2023-07-31T08:01:16;22.50;77.40
11304;DHT22;5707;49.588;12.148;2023-07-31T08:03:41;22.80;72.70
11304;DHT22;5707;49.588;12.148;2023-07-31T08:06:07;23.00;68.30
11304;DHT22;5707;49.588;12.148;2023-07-31T08:08:35;23.00;67.70
11304;DHT22;5707;49.588;12.148;2023-07-31T08:11:00;22.90;64.70
11304;DHT22;5707;49.588;12.148;2023-07-31T08:13:26;22.90;73.90
11304;DHT22;5707;49.588;12.148;2023-07-31T08:15:51;23.20;70.10
11304;DHT22;5707;49.588;12.148;2023-07-31T08:18:17;23.20;73.20
11304;DHT22;5707;49.588;12.148;2023-07-31T08:20:43;23.40;64.50
11304;DHT22;5707;49.588;12.148;2023-07-31T08:23:09;23.10;62.00
11304;DHT22;5707;49.588;12.148;2023-07-31T08:25:37;23.20;65.80
11304;DHT22;5707;49.588;12.148;2023-07-31T08:28:04;23.80;65.10
11304;DHT22;5707;49.588;12.148;2023-07-31T08:30:30;24.30;57.70
11304;DHT22;5707;49.588;12.148;2023-07-31T08:32:56;24.50;54.80
11304;DHT22;5707;49.588;12.148;2023-07-31T08:35:21;24.70;53.40
11304;DHT22;5707;49.588;12.148;2023-07-31T08:37:47;24.70;51.40
11304;DHT22;5707;49.588;12.148;2023-07-31T08:40:13;24.70;50.50
11304;DHT22;5707;49.588;12.148;2023-07-31T08:42:49;24.60;51.00
11304;DHT22;5707;49.588;12.148;2023-07-31T08:45:19;24.50;58.70
11304;DHT22;5707;49.588;12.148;2023-07-31T08:47:46;24.80;55.50
11304;DHT22;5707;49.588;12.148;2023-07-31T08:50:13;25.00;51.50
11304;DHT22;5707;49.588;12.148;2023-07-31T08:52:39;25.20;51.20
11304;DHT22;5707;49.588;12.148;2023-07-31T08:55:06;25.40;49.90
11304;DHT22;5707;49.588;12.148;2023-07-31T08:57:33;25.40;46.70
11304;DHT22;5707;49.588;12.148;2023-07-31T09:00:00;25.80;46.20
11304;DHT22;5707;49.588;12.148;2023-07-31T09:03:13;26.10;47.20
11304;DHT22;5707;49.588;12.148;2023-07-31T09:05:19;26.80;45.00
11304;DHT22;5707;49.588;12.148;2023-07-31T09:07:47;26.80;42.00
11304;DHT22;5707;49.588;12.148;2023-07-31T09:10:15;26.70;38.60
11304;DHT22;5707;49.588;12.148;2023-07-31T09:12:40;26.30;36.70
11304;DHT22;5707;49.588;12.148;2023-07-31T09:15:06;26.00;42.70
11304;DHT22;5707;49.588;12.148;2023-07-31T09:17:34;25.90;38.90
11304;DHT22;5707;49.588;12.148;2023-07-31T09:20:20;25.90;41.60
11304;DHT22;5707;49.588;12.148;2023-07-31T09:22:48;26.00;38.10
11304;DHT22;5707;49.588;12.148;2023-07-31T09:25:32;26.00;35.90
11304;DHT22;5707;49.588;12.148;2023-07-31T09:28:02;25.90;38.10
11304;DHT22;5707;49.588;12.148;2023-07-31T09:30:28;26.30;39.10
11304;DHT22;5707;49.588;12.148;2023-07-31T09:33:03;26.30;38.10
11304;DHT22;5707;49.588;12.148;2023-07-31T09:35:30;26.20;37.10
11304;DHT22;5707;49.588;12.148;2023-07-31T09:38:07;25.90;39.70
11304;DHT22;5707;49.588;12.148;2023-07-31T09:40:35;25.70;42.90
11304;DHT22;5707;49.588;12.148;2023-07-31T09:43:06;25.60;38.10
11304;DHT22;5707;49.588;12.148;2023-07-31T09:45:41;25.80;39.40
11304;DHT22;5707;49.588;12.148;2023-07-31T09:48:08;26.00;36.70
11304;DHT22;5707;49.588;12.148;2023-07-31T09:50:41;26.10;38.10
11304;DHT22;5707;49.588;12.148;2023-07-31T09:53:08;26.40;39.80
11304;DHT22;5707;49.588;12.148;2023-07-31T09:55:35;26.80;35.30
11304;DHT22;5707;49.588;12.148;2023-07-31T09:58:06;26.90;37.70
11304;DHT22;5707;49.588;12.148;2023-07-31T10:00:32;26.70;34.80
11304;DHT22;5707;49.588;12.148;2023-07-31T10:03:06;26.30;38.60
11304;DHT22;5707;49.588;12.148;2023-07-31T10:05:38;26.40;38.20
11304;DHT22;5707;49.588;12.148;2023-07-31T10:08:04;26.80;33.60
11304;DHT22;5707;49.588;12.148;2023-07-31T10:10:31;26.70;34.80
11304;DHT22;5707;49.588;12.148;2023-07-31T10:12:57;26.20;31.20
11304;DHT22;5707;49.588;12.148;2023-07-31T10:15:24;25.80;36.90
11304;DHT22;5707;49.588;12.148;2023-07-31T10:17:51;25.70;36.70
11304;DHT22;5707;49.588;12.148;2023-07-31T10:20:17;25.80;37.80
11304;DHT22;5707;49.588;12.148;2023-07-31T10:22:44;26.40;33.80
11304;DHT22;5707;49.588;12.148;2023-07-31T10:25:11;26.70;32.50
11304;DHT22;5707;49.588;12.148;2023-07-31T10:27:38;26.70;34.20
11304;DHT22;5707;49.588;12.148;2023-07-31T10:30:06;27.00;35.40
11304;DHT22;5707;49.588;12.148;2023-07-31T10:32:33;26.90;30.90
11304;DHT22;5707;49.588;12.148;2023-07-31T10:35:01;27.00;33.10
11304;DHT22;5707;49.588;12.148;2023-07-31T10:37:30;27.50;31.60
11304;DHT22;5707;49.588;12.148;2023-07-31T10:40:06;28.00;32.00
11304;DHT22;5707;49.588;12.148;2023-07-31T10:45:31;28.40;28.10
11304;DHT22;5707;49.588;12.148;2023-07-31T10:48:01;28.10;28.00
11304;DHT22;5707;49.588;12.148;2023-07-31T10:50:28;27.90;28.50
11304;DHT22;5707;49.588;12.148;2023-07-31T10:52:55;27.60;27.20
11304;DHT22;5707;49.588;12.148;2023-07-31T10:55:31;27.60;26.70
11304;DHT22;5707;49.588;12.148;2023-07-31T10:58:05;27.50;29.90
11304;DHT22;5707;49.588;12.148;2023-07-31T11:00:31;27.50;28.60
11304;DHT22;5707;49.588;12.148;2023-07-31T11:08:23;26.70;30.10
11304;DHT22;5707;49.588;12.148;2023-07-31T11:11:06;26.40;33.00
11304;DHT22;5707;49.588;12.148;2023-07-31T11:16:04;25.60;30.80
11304;DHT22;5707;49.588;12.148;2023-07-31T11:18:30;25.80;29.60
11304;DHT22;5707;49.588;12.148;2023-07-31T11:20:55;25.90;31.20
11304;DHT22;5707;49.588;12.148;2023-07-31T11:23:22;26.30;30.00
11304;DHT22;5707;49.588;12.148;2023-07-31T11:25:47;26.70;31.10
11304;DHT22;5707;49.588;12.148;2023-07-31T11:28:15;26.90;27.00
11304;DHT22;5707;49.588;12.148;2023-07-31T11:30:42;26.90;27.60
11304;DHT22;5707;49.588;12.148;2023-07-31T11:33:10;26.80;29.40
11304;DHT22;5707;49.588;12.148;2023-07-31T11:35:44;26.90;27.60
11304;DHT22;5707;49.588;12.148;2023-07-31T11:38:12;27.00;28.90
11304;DHT22;5707;49.588;12.148;2023-07-31T11:40:42;27.00;27.40
11304;DHT22;5707;49.588;12.148;2023-07-31T11:43:08;26.60;26.40
11304;DHT22;5707;49.588;12.148;2023-07-31T11:45:34;26.40;28.50
11304;DHT22;5707;49.588;12.148;2023-07-31T11:48:00;26.60;30.20
11304;DHT22;5707;49.588;12.148;2023-07-31T11:50:27;27.00;31.20
11304;DHT22;5707;49.588;12.148;2023-07-31T11:52:59;27.00;26.40
11304;DHT22;5707;49.588;12.148;2023-07-31T11:55:25;26.90;31.20
11304;DHT22;5707;49.588;12.148;2023-07-31T11:57:52;27.00;30.00
11304;DHT22;5707;49.588;12.148;2023-07-31T12:00:19;26.80;27.90
11304;DHT22;5707;49.588;12.148;2023-07-31T12:02:45;26.80;28.30
11304;DHT22;5707;49.588;12.148;2023-07-31T12:05:14;26.80;28.20
11304;DHT22;5707;49.588;12.148;2023-07-31T12:07:52;26.90;29.80
11304;DHT22;5707;49.588;12.148;2023-07-31T12:12:56;27.40;26.60
11304;DHT22;5707;49.588;12.148;2023-07-31T12:15:32;27.60;28.80
11304;DHT22;5707;49.588;12.148;2023-07-31T12:17:58;27.40;27.10
11304;DHT22;5707;49.588;12.148;2023-07-31T12:20:24;26.20;29.50
11304;DHT22;5707;49.588;12.148;2023-07-31T12:22:49;25.30;28.90
11304;DHT22;5707;49.588;12.148;2023-07-31T12:25:15;25.20;32.90
11304;DHT22;5707;49.588;12.148;2023-07-31T12:27:44;25.60;32.40
11304;DHT22;5707;49.588;12.148;2023-07-31T12:30:33;26.40;28.80
11304;DHT22;5707;49.588;12.148;2023-07-31T12:33:32;27.00;28.40
11304;DHT22;5707;49.588;12.148;2023-07-31T12:36:01;27.60;26.70
11304;DHT22;5707;49.588;12.148;2023-07-31T12:38:27;28.00;27.50
11304;DHT22;5707;49.588;12.148;2023-07-31T12:40:52;28.10;27.70
11304;DHT22;5707;49.588;12.148;2023-07-31T12:43:18;28.00;29.50
11304;DHT22;5707;49.588;12.148;2023-07-31T12:45:43;27.70;26.50
11304;DHT22;5707;49.588;12.148;2023-07-31T12:48:09;27.20;28.30
11304;DHT22;5707;49.588;12.148;2023-07-31T12:50:35;27.00;27.20
11304;DHT22;5707;49.588;12.148;2023-07-31T12:53:02;27.00;27.50
11304;DHT22;5707;49.588;12.148;2023-07-31T12:55:28;27.10;25.40
11304;DHT22;5707;49.588;12.148;2023-07-31T12:57:54;27.40;26.00
11304;DHT22;5707;49.588;12.148;2023-07-31T13:00:20;27.60;27.30
11304;DHT22;5707;49.588;12.148;2023-07-31T13:02:45;27.50;24.80
11304;DHT22;5707;49.588;12.148;2023-07-31T13:05:11;27.30;26.70
11304;DHT22;5707;49.588;12.148;2023-07-31T13:07:38;27.70;28.20
11304;DHT22;5707;49.588;12.148;2023-07-31T13:10:04;28.10;25.70
11304;DHT22;5707;49.588;12.148;2023-07-31T13:12:30;27.90;25.90
11304;DHT22;5707;49.588;12.148;2023-07-31T13:14:55;28.00;25.60
11304;DHT22;5707;49.588;12.148;2023-07-31T13:17:21;27.60;24.80
11304;DHT22;5707;49.588;12.148;2023-07-31T13:19:47;27.30;25.20
11304;DHT22;5707;49.588;12.148;2023-07-31T13:22:12;27.10;27.50
11304;DHT22;5707;49.588;12.148;2023-07-31T13:24:38;27.40;27.40
11304;DHT22;5707;49.588;12.148;2023-07-31T13:27:03;27.60;25.70
11304;DHT22;5707;49.588;12.148;2023-07-31T13:29:29;28.30;28.30
11304;DHT22;5707;49.588;12.148;2023-07-31T13:31:55;28.80;24.10
11304;DHT22;5707;49.588;12.148;2023-07-31T13:34:21;29.00;23.50
11304;DHT22;5707;49.588;12.148;2023-07-31T13:36:46;29.10;24.40
11304;DHT22;5707;49.588;12.148;2023-07-31T13:39:12;29.10;26.40
11304;DHT22;5707;49.588;12.148;2023-07-31T13:41:37;28.90;24.00
11304;DHT22;5707;49.588;12.148;2023-07-31T13:44:03;28.40;22.90
11304;DHT22;5707;49.588;12.148;2023-07-31T13:46:29;28.10;24.80
11304;DHT22;5707;49.588;12.148;2023-07-31T13:48:54;28.00;23.50
11304;DHT22;5707;49.588;12.148;2023-07-31T13:51:21;27.70;24.10
11304;DHT22;5707;49.588;12.148;2023-07-31T13:53:47;27.60;24.80
11304;DHT22;5707;49.588;12.148;2023-07-31T13:56:13;27.80;26.50
11304;DHT22;5707;49.588;12.148;2023-07-31T13:58:38;28.40;26.80
11304;DHT22;5707;49.588;12.148;2023-07-31T14:01:04;28.80;24.90
11304;DHT22;5707;49.588;12.148;2023-07-31T14:03:30;29.10;23.00
11304;DHT22;5707;49.588;12.148;2023-07-31T14:05:56;28.90;23.90
11304;DHT22;5707;49.588;12.148;2023-07-31T14:08:22;28.60;23.70
11304;DHT22;5707;49.588;12.148;2023-07-31T14:10:47;28.30;25.00
11304;DHT22;5707;49.588;12.148;2023-07-31T14:13:13;28.40;25.90
11304;DHT22;5707;49.588;12.148;2023-07-31T14:15:41;29.00;22.30
11304;DHT22;5707;49.588;12.148;2023-07-31T14:18:07;29.00;23.90
11304;DHT22;5707;49.588;12.148;2023-07-31T14:20:32;28.90;25.20
11304;DHT22;5707;49.588;12.148;2023-07-31T14:22:58;28.70;26.20
11304;DHT22;5707;49.588;12.148;2023-07-31T14:25:24;28.60;23.90
11304;DHT22;5707;49.588;12.148;2023-07-31T14:27:50;28.50;24.10
11304;DHT22;5707;49.588;12.148;2023-07-31T14:30:15;28.20;25.30
11304;DHT22;5707;49.588;12.148;2023-07-31T14:32:41;28.20;23.20
11304;DHT22;5707;49.588;12.148;2023-07-31T14:35:07;28.20;25.60
11304;DHT22;5707;49.588;12.148;2023-07-31T14:37:43;28.20;25.00
11304;DHT22;5707;49.588;12.148;2023-07-31T14:40:12;28.00;23.30
11304;DHT22;5707;49.588;12.148;2023-07-31T14:42:38;27.80;24.10
11304;DHT22;5707;49.588;12.148;2023-07-31T14:45:05;27.60;27.10
11304;DHT22;5707;49.588;12.148;2023-07-31T14:47:31;27.90;26.00
11304;DHT22;5707;49.588;12.148;2023-07-31T14:49:57;28.10;26.10
11304;DHT22;5707;49.588;12.148;2023-07-31T14:52:23;27.80;25.70
11304;DHT22;5707;49.588;12.148;2023-07-31T14:54:49;27.80;24.80
11304;DHT22;5707;49.588;12.148;2023-07-31T14:57:14;28.10;24.80
11304;DHT22;5707;49.588;12.148;2023-07-31T14:59:40;28.30;23.70
11304;DHT22;5707;49.588;12.148;2023-07-31T15:02:06;28.50;24.10
11304;DHT22;5707;49.588;12.148;2023-07-31T15:04:33;28.50;23.10
11304;DHT22;5707;49.588;12.148;2023-07-31T15:06:59;28.50;24.20
11304;DHT22;5707;49.588;12.148;2023-07-31T15:09:24;28.20;24.40
11304;DHT22;5707;49.588;12.148;2023-07-31T15:11:50;27.80;24.00
11304;DHT22;5707;49.588;12.148;2023-07-31T15:14:15;27.60;27.90
11304;DHT22;5707;49.588;12.148;2023-07-31T15:16:41;27.40;26.10
11304;DHT22;5707;49.588;12.148;2023-07-31T15:19:06;26.80;26.00
11304;DHT22;5707;49.588;12.148;2023-07-31T15:21:32;26.20;26.60
11304;DHT22;5707;49.588;12.148;2023-07-31T15:23:58;25.90;28.00
11304;DHT22;5707;49.588;12.148;2023-07-31T15:26:23;25.80;28.20
11304;DHT22;5707;49.588;12.148;2023-07-31T15:28:55;25.90;29.00
11304;DHT22;5707;49.588;12.148;2023-07-31T15:31:21;25.90;28.30
11304;DHT22;5707;49.588;12.148;2023-07-31T15:33:47;25.90;29.40
11304;DHT22;5707;49.588;12.148;2023-07-31T15:36:13;25.80;26.80
11304;DHT22;5707;49.588;12.148;2023-07-31T15:38:39;25.70;26.20
11304;DHT22;5707;49.588;12.148;2023-07-31T15:41:05;25.60;26.90
11304;DHT22;5707;49.588;12.148;2023-07-31T15:43:31;25.60;27.00
11304;DHT22;5707;49.588;12.148;2023-07-31T15:45:57;25.60;29.90